Terminal Aerodrome Forecast
Issued by NWS Louisville, KY

Home | Current Version | Previous Version | Text Only | Print | Product List | Glossary On
Versions: 1 2 3 4 5 6 7 8 9 10 11 12 13 14 15 16 17 18 19 20
000
FTUS43 KLMK 020500
TAFBWG
TAF
KBWG 020520Z 0206/0306 04004KT 4SM BR OVC009
     FM020900 VRB02KT 1SM BR OVC006
     FM021400 04004KT P6SM OVC015
     FM021800 03005KT P6SM BKN035=

USA.gov is the U.S. government's official web portal to all federal, state and local government web resources and services.